createdAt,value
2017-06-10T00:01:55.337Z,3.93
2017-06-10T00:04:22.861Z,4.10
2017-06-10T00:06:50.371Z,3.70
2017-06-10T00:09:17.907Z,3.90
2017-06-10T00:11:45.866Z,3.90
2017-06-10T00:14:13.521Z,5.50
2017-06-10T00:16:42.229Z,4.30
2017-06-10T00:19:09.768Z,4.63
2017-06-10T00:21:37.368Z,4.73
2017-06-10T00:24:04.955Z,3.47
2017-06-10T00:26:33.503Z,4.03
2017-06-10T00:29:01.017Z,3.80
2017-06-10T00:31:28.743Z,3.60
2017-06-10T00:33:56.330Z,4.87
2017-06-10T00:36:24.851Z,3.87
2017-06-10T00:38:52.387Z,3.90
2017-06-10T00:41:19.895Z,4.13
2017-06-10T00:43:47.429Z,3.40
2017-06-10T00:46:14.935Z,4.83
2017-06-10T00:48:42.470Z,3.83
2017-06-10T00:51:09.982Z,3.90
2017-06-10T00:53:37.518Z,3.03
2017-06-10T00:56:05.039Z,4.40
2017-06-10T00:58:32.557Z,4.20
2017-06-10T01:01:00.100Z,3.53
2017-06-10T01:03:28.379Z,3.07
2017-06-10T01:05:56.693Z,3.40
2017-06-10T01:08:24.203Z,3.40
2017-06-10T01:10:51.735Z,2.73
2017-06-10T01:13:19.243Z,3.83
2017-06-10T01:15:47.551Z,4.53
2017-06-10T01:18:15.055Z,4.40
2017-06-10T01:20:42.590Z,5.10
2017-06-10T01:23:10.106Z,4.20
2017-06-10T01:25:37.662Z,3.57
2017-06-10T01:28:05.175Z,5.17
2017-06-10T01:30:32.681Z,4.50
2017-06-10T01:33:00.482Z,5.20
2017-06-10T01:35:28.245Z,5.60
2017-06-10T01:37:56.004Z,5.13
2017-06-10T01:40:23.523Z,5.67
2017-06-10T01:42:51.811Z,5.80
2017-06-10T01:45:19.619Z,6.30
2017-06-10T01:47:47.115Z,5.63
2017-06-10T01:50:15.431Z,6.10
2017-06-10T01:52:45.022Z,5.20
2017-06-10T01:55:12.560Z,5.93
2017-06-10T01:57:40.832Z,6.70
2017-06-10T02:00:08.395Z,6.37
2017-06-10T02:02:35.895Z,6.30
2017-06-10T02:05:03.407Z,6.20
2017-06-10T02:07:30.945Z,7.30
2017-06-10T02:09:58.459Z,6.70
2017-06-10T02:12:25.963Z,8.10
2017-06-10T02:14:53.510Z,8.30
2017-06-10T02:17:21.011Z,8.53
2017-06-10T02:19:49.319Z,8.47
2017-06-10T02:22:16.832Z,9.10
2017-06-10T02:24:44.374Z,8.00
2017-06-10T02:27:11.885Z,7.90
2017-06-10T02:29:39.403Z,7.67
2017-06-10T02:32:06.934Z,8.10
2017-06-10T02:34:34.443Z,7.97
2017-06-10T02:37:02.978Z,7.83
2017-06-10T02:39:30.482Z,8.30
2017-06-10T02:41:58.993Z,8.67
2017-06-10T02:44:26.504Z,8.00
2017-06-10T02:46:54.045Z,8.67
2017-06-10T02:49:21.584Z,9.30
2017-06-10T02:51:49.090Z,8.90
2017-06-10T02:54:16.630Z,9.20
2017-06-10T02:56:44.138Z,10.17
2017-06-10T02:59:11.943Z,9.60
2017-06-10T03:01:40.450Z,8.93
2017-06-10T03:04:07.963Z,8.17
2017-06-10T03:06:35.494Z,7.27
2017-06-10T03:09:03.776Z,7.80
2017-06-10T03:11:32.118Z,8.10
2017-06-10T03:13:59.614Z,8.77
2017-06-10T03:16:27.893Z,7.43
2017-06-10T03:18:56.074Z,7.80
2017-06-10T03:21:23.602Z,7.63
2017-06-10T03:23:51.131Z,6.60
2017-06-10T03:26:18.690Z,6.93
2017-06-10T03:28:46.196Z,7.00
2017-06-10T03:31:14.467Z,7.83
2017-06-10T03:33:42.785Z,7.23
2017-06-10T03:36:10.293Z,7.80
2017-06-10T03:38:38.060Z,7.10
2017-06-10T03:41:06.346Z,6.07
2017-06-10T03:43:34.986Z,6.40
2017-06-10T03:46:02.507Z,6.27
2017-06-10T03:48:30.010Z,6.80
2017-06-10T03:50:57.553Z,6.97
2017-06-10T03:53:25.060Z,7.10
2017-06-10T03:55:52.570Z,6.23
2017-06-10T03:58:20.318Z,6.30
2017-06-10T04:00:47.871Z,6.77
2017-06-10T04:03:15.774Z,7.80
2017-06-10T04:05:43.323Z,5.90
2017-06-10T04:08:10.827Z,5.90
2017-06-10T04:10:38.388Z,7.63
2017-06-10T04:13:05.892Z,6.20
2017-06-10T04:15:33.393Z,6.03
2017-06-10T04:18:00.955Z,7.40
2017-06-10T04:20:28.458Z,7.23
2017-06-10T04:22:55.973Z,5.57
2017-06-10T04:25:23.515Z,6.40
2017-06-10T04:27:51.024Z,6.37
2017-06-10T04:30:19.331Z,6.10
2017-06-10T04:32:46.838Z,5.53
2017-06-10T04:35:14.382Z,4.93
2017-06-10T04:37:42.681Z,5.23
2017-06-10T04:40:10.968Z,5.60
2017-06-10T04:42:38.516Z,5.70
2017-06-10T04:45:06.791Z,5.60
2017-06-10T04:47:34.348Z,5.10
2017-06-10T04:50:01.851Z,5.10
2017-06-10T04:52:29.635Z,5.30
2017-06-10T04:54:57.165Z,5.03
2017-06-10T04:57:24.961Z,5.10
2017-06-10T04:59:52.530Z,5.00
2017-06-10T05:02:20.030Z,4.93
2017-06-10T05:04:48.300Z,5.13
2017-06-10T05:07:16.607Z,4.20
2017-06-10T05:09:44.128Z,4.67
2017-06-10T05:12:11.958Z,4.60
2017-06-10T05:14:39.490Z,5.40
2017-06-10T05:17:07.037Z,3.77
2017-06-10T05:19:34.539Z,5.17
2017-06-10T05:22:02.091Z,4.73
2017-06-10T05:24:29.863Z,4.20
2017-06-10T05:26:57.370Z,4.67
2017-06-10T05:29:25.685Z,3.77
2017-06-10T05:31:53.206Z,4.83
2017-06-10T05:34:21.473Z,4.50
2017-06-10T05:36:49.006Z,4.40
2017-06-10T05:39:16.551Z,4.20
2017-06-10T05:41:44.061Z,3.20
2017-06-10T05:44:11.596Z,3.50
2017-06-10T05:46:39.126Z,4.60
2017-06-10T05:49:06.642Z,3.87
2017-06-10T05:51:34.194Z,5.47
2017-06-10T05:54:02.835Z,4.13
2017-06-10T05:56:30.373Z,5.90
2017-06-10T05:58:57.943Z,4.10
2017-06-10T06:01:25.474Z,4.93
2017-06-10T06:03:53.028Z,5.00
2017-06-10T06:06:20.558Z,3.87
2017-06-10T06:08:48.295Z,5.23
2017-06-10T06:11:15.838Z,5.10
2017-06-10T06:13:43.337Z,3.50
2017-06-10T06:16:10.852Z,3.43
2017-06-10T06:18:38.403Z,3.60
2017-06-10T06:21:05.925Z,4.07
2017-06-10T06:23:33.430Z,4.30
2017-06-10T06:26:00.962Z,4.20
2017-06-10T06:28:29.260Z,4.57
2017-06-10T06:30:56.755Z,3.70
2017-06-10T06:33:24.272Z,4.23
2017-06-10T06:35:51.813Z,3.90
2017-06-10T06:38:19.717Z,8.83
2017-06-10T06:40:47.578Z,3.63
2017-06-10T06:43:15.149Z,3.63
2017-06-10T06:45:44.144Z,3.80
2017-06-10T06:48:12.811Z,3.43
2017-06-10T06:50:40.369Z,3.67
2017-06-10T06:53:07.883Z,3.87
2017-06-10T06:55:35.389Z,3.77
2017-06-10T06:58:02.939Z,3.20
2017-06-10T07:00:30.451Z,3.80
2017-06-10T07:02:58.044Z,3.20
2017-06-10T07:05:26.354Z,3.17
2017-06-10T07:07:54.087Z,3.50
2017-06-10T07:10:21.626Z,3.00
2017-06-10T07:12:49.145Z,3.20
2017-06-10T07:15:16.705Z,3.10
2017-06-10T07:17:44.216Z,3.10
2017-06-10T07:20:11.724Z,3.73
2017-06-10T07:22:39.505Z,4.80
2017-06-10T07:25:07.011Z,3.13
2017-06-10T07:27:34.567Z,3.30
2017-06-10T07:30:02.082Z,4.30
2017-06-10T07:32:29.590Z,3.23
2017-06-10T07:34:57.406Z,3.30
2017-06-10T07:37:24.979Z,3.53
2017-06-10T07:39:52.508Z,3.27
2017-06-10T07:42:20.059Z,3.90
2017-06-10T07:44:47.711Z,3.73
2017-06-10T07:47:15.242Z,2.90
2017-06-10T07:49:43.067Z,4.33
2017-06-10T07:52:10.570Z,3.57
2017-06-10T07:54:38.088Z,3.40
2017-06-10T07:57:05.641Z,3.53
2017-06-10T07:59:33.212Z,2.60
2017-06-10T08:02:00.796Z,3.30
2017-06-10T08:04:28.316Z,4.00
2017-06-10T08:06:57.686Z,3.40
2017-06-10T08:09:25.347Z,3.23
2017-06-10T08:11:54.233Z,4.63
2017-06-10T08:14:26.608Z,3.30
2017-06-10T08:19:42.108Z,3.43
2017-06-10T08:22:11.578Z,3.80
2017-06-10T08:24:43.393Z,3.60
2017-06-10T08:27:12.668Z,4.83
2017-06-10T08:29:42.618Z,3.03
2017-06-10T08:32:11.669Z,4.10
2017-06-10T08:34:40.636Z,3.97
2017-06-10T08:37:09.712Z,3.10
2017-06-10T08:39:38.086Z,3.00
2017-06-10T08:42:06.853Z,4.40
2017-06-10T08:44:35.591Z,3.47
2017-06-10T08:47:04.255Z,5.00
2017-06-10T08:49:33.024Z,3.00
2017-06-10T08:52:02.429Z,3.90
2017-06-10T08:54:30.975Z,3.80
2017-06-10T08:56:58.566Z,3.67
2017-06-10T08:59:26.113Z,3.37
2017-06-10T09:01:53.660Z,3.33
2017-06-10T09:04:21.974Z,3.13
2017-06-10T09:06:49.542Z,2.53
2017-06-10T09:09:17.211Z,3.20
2017-06-10T09:11:44.715Z,2.67
2017-06-10T09:14:13.060Z,2.60
2017-06-10T09:16:40.612Z,3.07
2017-06-10T09:19:08.146Z,2.63
2017-06-10T09:21:35.658Z,2.93
2017-06-10T09:24:03.211Z,2.60
2017-06-10T09:26:30.720Z,3.53
2017-06-10T09:28:58.235Z,2.67
2017-06-10T09:31:26.097Z,2.50
2017-06-10T09:33:53.916Z,2.50
2017-06-10T09:36:21.506Z,2.43
2017-06-10T09:38:49.341Z,2.80
2017-06-10T09:41:17.154Z,2.53
2017-06-10T09:43:45.060Z,2.43
2017-06-10T09:46:12.595Z,2.90
2017-06-10T09:48:40.456Z,2.97
2017-06-10T09:51:08.640Z,3.00
2017-06-10T09:53:36.228Z,3.80
2017-06-10T09:56:03.760Z,2.60
2017-06-10T09:58:31.550Z,3.20
2017-06-10T10:01:00.708Z,3.17
2017-06-10T10:03:28.271Z,2.80
2017-06-10T10:05:56.024Z,2.70
2017-06-10T10:08:23.664Z,3.10
2017-06-10T10:10:51.390Z,2.70
2017-06-10T10:13:18.934Z,3.03
2017-06-10T10:15:47.214Z,2.50
2017-06-10T10:18:15.504Z,3.40
2017-06-10T10:20:43.808Z,2.33
2017-06-10T10:23:11.378Z,2.30
2017-06-10T10:25:38.929Z,2.20
2017-06-10T10:28:06.508Z,2.83
2017-06-10T10:30:34.015Z,3.63
2017-06-10T10:33:01.567Z,3.00
2017-06-10T10:35:29.401Z,2.57
2017-06-10T10:37:56.914Z,2.43
2017-06-10T10:40:24.436Z,5.17
2017-06-10T10:42:51.994Z,2.30
2017-06-10T10:45:19.520Z,3.07
2017-06-10T10:47:47.389Z,2.70
2017-06-10T10:50:14.966Z,3.00
2017-06-10T10:52:42.479Z,2.53
2017-06-10T10:55:10.036Z,3.40
2017-06-10T10:57:38.332Z,2.13
2017-06-10T11:00:05.931Z,2.83
2017-06-10T11:02:33.443Z,2.60
2017-06-10T11:05:04.960Z,2.43
2017-06-10T11:07:33.402Z,2.40
2017-06-10T11:10:00.951Z,3.13
2017-06-10T11:12:28.509Z,2.50
2017-06-10T11:14:56.013Z,3.70
2017-06-10T11:17:23.603Z,2.60
2017-06-10T11:19:51.898Z,3.20
2017-06-10T11:22:19.632Z,3.30
2017-06-10T11:24:47.184Z,2.70
2017-06-10T11:27:14.726Z,3.20
2017-06-10T11:29:42.288Z,3.10
2017-06-10T11:32:09.808Z,2.37
2017-06-10T11:34:37.324Z,3.17
2017-06-10T11:37:04.940Z,4.50
2017-06-10T11:39:32.504Z,3.60
2017-06-10T11:42:00.031Z,3.50
2017-06-10T11:44:27.563Z,3.73
2017-06-10T11:46:55.391Z,3.20
2017-06-10T11:49:22.889Z,3.27
2017-06-10T11:51:50.731Z,3.20
2017-06-10T11:54:18.287Z,2.57
2017-06-10T11:56:45.817Z,3.20
2017-06-10T11:59:13.334Z,4.50
2017-06-10T12:01:41.116Z,2.90
2017-06-10T12:04:08.641Z,3.10
2017-06-10T12:06:36.495Z,3.37
2017-06-10T12:09:04.004Z,3.70
2017-06-10T12:11:32.315Z,3.87
2017-06-10T12:13:59.978Z,4.43
2017-06-10T12:16:27.687Z,3.00
2017-06-10T12:18:56.136Z,3.20
2017-06-10T12:21:23.662Z,3.23
2017-06-10T12:23:51.242Z,2.87
2017-06-10T12:26:18.836Z,2.80
2017-06-10T12:28:46.340Z,4.20
2017-06-10T12:31:13.889Z,3.27
2017-06-10T12:33:42.180Z,4.00
2017-06-10T12:36:10.579Z,3.57
2017-06-10T12:38:38.100Z,2.80
2017-06-10T12:41:06.414Z,3.23
2017-06-10T12:43:33.923Z,3.17
2017-06-10T12:46:01.495Z,3.57
2017-06-10T12:48:29.776Z,3.50
2017-06-10T12:50:57.352Z,3.57
2017-06-10T12:53:24.934Z,2.87
2017-06-10T12:55:52.482Z,2.40
2017-06-10T12:58:19.991Z,2.07
2017-06-10T13:00:47.494Z,3.37
2017-06-10T13:03:15.038Z,3.13
2017-06-10T13:05:43.320Z,3.03
2017-06-10T13:08:10.827Z,3.17
2017-06-10T13:10:39.443Z,2.53
2017-06-10T13:13:06.951Z,2.67
2017-06-10T13:15:34.480Z,2.70
2017-06-10T13:18:02.036Z,3.43
2017-06-10T13:20:29.543Z,3.50
2017-06-10T13:22:57.104Z,3.03
2017-06-10T13:25:25.438Z,2.77
2017-06-10T13:27:53.276Z,2.90
2017-06-10T13:30:23.130Z,2.53
2017-06-10T13:32:52.603Z,2.60
2017-06-10T13:35:22.077Z,3.57
2017-06-10T13:37:49.644Z,2.67
2017-06-10T13:40:17.199Z,2.83
2017-06-10T13:42:46.579Z,2.83
2017-06-10T13:45:16.164Z,2.83
2017-06-10T13:47:43.729Z,2.70
2017-06-10T13:50:11.253Z,2.90
2017-06-10T13:52:38.817Z,2.97
2017-06-10T13:55:07.221Z,2.83
2017-06-10T13:57:34.719Z,2.37
2017-06-10T14:00:02.257Z,2.07
2017-06-10T14:02:29.833Z,2.33
2017-06-10T14:04:57.407Z,3.43
2017-06-10T14:07:24.944Z,2.80
2017-06-10T14:09:52.823Z,2.30
2017-06-10T14:12:20.491Z,2.50
2017-06-10T14:14:48.350Z,3.00
2017-06-10T14:17:15.883Z,2.90
2017-06-10T14:19:44.299Z,2.27
2017-06-10T14:22:11.919Z,2.67
2017-06-10T14:24:39.421Z,2.47
2017-06-10T14:27:06.974Z,3.00
2017-06-10T14:29:34.492Z,2.63
2017-06-10T14:32:02.083Z,2.33
2017-06-10T14:34:31.952Z,3.60
2017-06-10T14:37:03.815Z,2.97
2017-06-10T14:39:32.099Z,3.60
2017-06-10T14:41:59.761Z,3.70
2017-06-10T14:44:27.294Z,2.00
2017-06-10T14:46:54.811Z,1.90
2017-06-10T14:49:23.157Z,2.50
2017-06-10T14:51:51.782Z,9.63
2017-06-10T14:54:19.309Z,4.20
2017-06-10T14:56:53.184Z,5.07
2017-06-10T14:59:20.911Z,2.80
2017-06-10T15:01:49.315Z,2.87
2017-06-10T15:04:18.306Z,2.93
2017-06-10T15:06:50.246Z,3.17
2017-06-10T15:09:18.664Z,2.93
2017-06-10T15:11:48.025Z,2.27
2017-06-10T15:14:17.017Z,2.30
2017-06-10T15:16:44.516Z,2.50
2017-06-10T15:19:12.099Z,1.83
2017-06-10T15:21:40.553Z,2.60
2017-06-10T15:24:08.064Z,4.00
2017-06-10T15:26:35.900Z,2.20
2017-06-10T15:29:04.375Z,2.80
2017-06-10T15:31:33.723Z,2.60
2017-06-10T15:34:01.356Z,2.67
2017-06-10T15:36:30.573Z,2.67
2017-06-10T15:38:58.139Z,2.27
2017-06-10T15:41:25.655Z,2.40
2017-06-10T15:43:55.252Z,2.57
2017-06-10T15:46:24.828Z,2.37
2017-06-10T15:48:53.262Z,2.37
2017-06-10T15:51:20.787Z,2.50
2017-06-10T15:53:48.427Z,2.00
2017-06-10T15:56:17.531Z,3.13
2017-06-10T15:58:45.980Z,2.70
2017-06-10T16:01:13.500Z,2.50
2017-06-10T16:03:41.058Z,27.93
2017-06-10T16:06:08.578Z,11.37
2017-06-10T16:08:36.123Z,18.00
2017-06-10T16:11:03.929Z,4.97
2017-06-10T16:13:31.476Z,17.80
2017-06-10T16:15:59.239Z,2.93
2017-06-10T16:18:27.043Z,30.53
2017-06-10T16:20:55.332Z,5.37
2017-06-10T16:23:22.910Z,2.43
2017-06-10T16:25:50.434Z,3.10
2017-06-10T16:28:17.986Z,14.23
2017-06-10T16:30:45.499Z,2.93
2017-06-10T16:33:14.129Z,2.30
2017-06-10T16:35:41.667Z,2.47
2017-06-10T16:38:09.175Z,3.13
2017-06-10T16:40:37.809Z,2.37
2017-06-10T16:43:05.339Z,3.60
2017-06-10T16:45:32.870Z,2.47
2017-06-10T16:48:01.193Z,4.80
2017-06-10T16:50:28.966Z,6.00
2017-06-10T16:52:56.469Z,4.47
2017-06-10T16:55:25.007Z,3.03
2017-06-10T16:57:52.506Z,2.70
2017-06-10T17:00:20.059Z,4.47
2017-06-10T17:02:48.391Z,8.23
2017-06-10T17:05:15.957Z,3.43
2017-06-10T17:07:43.501Z,2.20
2017-06-10T17:10:11.015Z,4.27
2017-06-10T17:12:38.523Z,2.60
2017-06-10T17:15:06.079Z,4.07
2017-06-10T17:17:33.596Z,2.57
2017-06-10T17:20:01.094Z,2.73
2017-06-10T17:22:28.643Z,2.53
2017-06-10T17:24:56.178Z,3.10
2017-06-10T17:27:24.455Z,2.60
2017-06-10T17:29:52.008Z,4.00
2017-06-10T17:32:19.541Z,4.17
2017-06-10T17:34:47.061Z,2.40
2017-06-10T17:37:14.859Z,2.47
2017-06-10T17:39:42.406Z,1.80
2017-06-10T17:42:09.966Z,2.73
2017-06-10T17:44:37.471Z,2.60
2017-06-10T17:47:05.684Z,2.37
2017-06-10T17:49:34.028Z,3.10
2017-06-10T17:52:01.853Z,2.87
2017-06-10T17:54:31.988Z,2.27
2017-06-10T17:57:01.323Z,3.03
2017-06-10T17:59:28.840Z,3.17
2017-06-10T18:01:56.353Z,2.50
2017-06-10T18:04:23.889Z,2.37
2017-06-10T18:06:51.425Z,3.30
2017-06-10T18:09:18.973Z,3.63
2017-06-10T18:11:46.479Z,2.90
2017-06-10T18:14:14.081Z,2.97
2017-06-10T18:16:41.639Z,2.43
2017-06-10T18:19:09.375Z,3.00
2017-06-10T18:21:36.967Z,3.27
2017-06-10T18:24:04.474Z,3.83
2017-06-10T18:26:31.988Z,4.17
2017-06-10T18:28:59.541Z,2.97
2017-06-10T18:31:27.055Z,23.40
2017-06-10T18:33:54.585Z,8.80
2017-06-10T18:36:22.115Z,7.77
2017-06-10T18:38:49.668Z,9.23
2017-06-10T18:41:17.185Z,26.60
2017-06-10T18:43:44.820Z,9.97
2017-06-10T18:46:12.322Z,6.03
2017-06-10T18:48:41.602Z,6.00
2017-06-10T18:51:18.937Z,7.27
2017-06-10T18:53:47.760Z,170.17
2017-06-10T18:56:15.310Z,188.40
2017-06-10T18:58:42.875Z,59.70
2017-06-10T19:01:12.660Z,9.13
2017-06-10T19:03:41.004Z,4.33
2017-06-10T19:06:09.643Z,3.53
2017-06-10T19:08:37.275Z,3.77
2017-06-10T19:11:05.326Z,4.00
2017-06-10T19:13:32.958Z,4.10
2017-06-10T19:16:00.507Z,4.80
2017-06-10T19:18:28.051Z,4.43
2017-06-10T19:20:55.556Z,4.90
2017-06-10T19:23:23.111Z,5.30
2017-06-10T19:25:50.618Z,5.90
2017-06-10T19:28:18.137Z,5.60
2017-06-10T19:30:45.683Z,5.20
2017-06-10T19:33:13.267Z,5.37
2017-06-10T19:35:40.813Z,4.00
2017-06-10T19:38:08.321Z,4.80
2017-06-10T19:40:36.101Z,5.03
2017-06-10T19:43:03.604Z,4.93
2017-06-10T19:45:31.144Z,4.43
2017-06-10T19:47:58.993Z,4.50
2017-06-10T19:50:26.539Z,5.40
2017-06-10T19:52:54.046Z,6.43
2017-06-10T19:55:21.567Z,6.00
2017-06-10T19:57:49.102Z,6.27
2017-06-10T20:00:16.614Z,7.00
2017-06-10T20:02:44.149Z,6.90
2017-06-10T20:05:11.671Z,7.20
2017-06-10T20:07:39.245Z,7.30
2017-06-10T20:10:07.026Z,5.23
2017-06-10T20:12:34.569Z,5.93
2017-06-10T20:15:02.128Z,5.90
2017-06-10T20:17:29.684Z,6.07
2017-06-10T20:19:57.204Z,7.03
2017-06-10T20:22:25.536Z,5.97
2017-06-10T20:24:53.039Z,6.43
2017-06-10T20:27:20.651Z,7.07
2017-06-10T20:29:48.193Z,5.70
2017-06-10T20:32:15.707Z,6.63
2017-06-10T20:34:43.249Z,5.10
2017-06-10T20:37:10.762Z,5.00
2017-06-10T20:39:38.337Z,5.00
2017-06-10T20:42:05.851Z,5.43
2017-06-10T20:44:33.350Z,6.73
2017-06-10T20:47:00.889Z,6.13
2017-06-10T20:49:28.700Z,6.60
2017-06-10T20:51:56.245Z,7.07
2017-06-10T20:54:23.805Z,9.20
2017-06-10T20:56:51.361Z,10.30
2017-06-10T20:59:18.867Z,9.33
2017-06-10T21:01:46.427Z,11.67
2017-06-10T21:04:13.989Z,10.50
2017-06-10T21:06:42.323Z,10.13
2017-06-10T21:09:09.878Z,10.20
2017-06-10T21:11:37.408Z,10.60
2017-06-10T21:14:05.007Z,12.17
2017-06-10T21:16:32.522Z,10.10
2017-06-10T21:19:00.790Z,13.03
2017-06-10T21:21:28.339Z,9.13
2017-06-10T21:23:56.775Z,13.77
2017-06-10T21:26:24.336Z,9.90
2017-06-10T21:28:51.863Z,9.73
2017-06-10T21:31:20.156Z,9.47
2017-06-10T21:33:47.720Z,7.83
2017-06-10T21:36:15.517Z,8.40
2017-06-10T21:38:43.040Z,9.17
2017-06-10T21:41:10.606Z,9.20
2017-06-10T21:43:38.126Z,10.73
2017-06-10T21:46:05.686Z,10.70
2017-06-10T21:48:33.788Z,10.90
2017-06-10T21:51:01.347Z,9.60
2017-06-10T21:53:29.122Z,10.67
2017-06-10T21:55:56.634Z,10.10
2017-06-10T21:58:24.184Z,10.10
2017-06-10T22:00:51.758Z,10.80
2017-06-10T22:03:19.275Z,11.80
2017-06-10T22:05:46.823Z,11.60
2017-06-10T22:08:14.366Z,12.07
2017-06-10T22:10:41.892Z,10.73
2017-06-10T22:13:09.451Z,10.90
2017-06-10T22:15:36.967Z,11.00
2017-06-10T22:18:04.470Z,11.47
2017-06-10T22:20:32.028Z,12.00
2017-06-10T22:22:59.546Z,12.33
2017-06-10T22:25:27.098Z,14.17
2017-06-10T22:27:54.644Z,12.33
2017-06-10T22:30:22.166Z,10.50
2017-06-10T22:32:49.729Z,12.10
2017-06-10T22:35:17.243Z,12.77
2017-06-10T22:37:44.758Z,11.37
2017-06-10T22:40:12.318Z,12.10
2017-06-10T22:42:39.840Z,11.53
2017-06-10T22:45:07.376Z,12.70
2017-06-10T22:47:34.883Z,11.27
2017-06-10T22:50:02.675Z,11.90
2017-06-10T22:52:30.187Z,13.20
2017-06-10T22:54:57.712Z,10.80
2017-06-10T22:57:25.271Z,10.93
2017-06-10T22:59:52.794Z,13.20
2017-06-10T23:02:20.358Z,16.60
2017-06-10T23:04:47.879Z,15.00
2017-06-10T23:07:15.386Z,13.20
2017-06-10T23:09:42.978Z,12.10
2017-06-10T23:12:10.499Z,12.07
2017-06-10T23:14:38.318Z,11.07
2017-06-10T23:17:05.863Z,13.60
2017-06-10T23:19:33.386Z,12.43
2017-06-10T23:22:00.896Z,12.00
2017-06-10T23:24:28.757Z,11.97
2017-06-10T23:26:56.327Z,11.73
2017-06-10T23:29:23.838Z,12.23
2017-06-10T23:31:51.367Z,11.27
2017-06-10T23:34:18.928Z,13.40
2017-06-10T23:36:46.440Z,11.77
2017-06-10T23:39:13.991Z,13.33
2017-06-10T23:41:41.538Z,14.50
2017-06-10T23:44:09.065Z,12.03
2017-06-10T23:46:36.607Z,13.60
2017-06-10T23:49:04.129Z,13.17
2017-06-10T23:51:31.712Z,12.40
2017-06-10T23:53:59.218Z,12.90
2017-06-10T23:56:26.721Z,11.87
2017-06-10T23:58:54.253Z,11.00
